Myra, Texas
Current Conditions -  °F | °C
As of 4:55 AM on Friday 24 Oct 2014 (Local Time) from KGLE Reporting Station
Clear Clear  
Wind Chill: 57°   Ceiling: Unl
Heat Index: 57°   Visibility: 10mi
Dew Point: 55°   Wind: 5mph
Humidity: 91%   Direction: 140°SE
Pressure: 30.13"   Gusts: NA
Location:  33.62°N, 97.31°W
Report Text: KGLE 240955Z AUTO 14004KT 10SM CLR 14/13 A3013 RMK AO2 T01400126
Loading
Personal Weather Stations






























Interactive Weather Map
Tropical Storm Tracking
New forecast layout! Learn more

10-Day Weather Forecast

Advertisements
Track Severe Weather on mobile